sensor_id;sensor_type;location;lat;lon;timestamp;P1;durP1;ratioP1;P2;durP2;ratioP2
6007;SDS011;3032;49.484;11.112;2023-04-07T00:01:01;15.70;;;10.60;;
6007;SDS011;3032;49.484;11.112;2023-04-07T00:03:27;11.20;;;9.10;;
6007;SDS011;3032;49.484;11.112;2023-04-07T00:05:52;12.53;;;8.83;;
6007;SDS011;3032;49.484;11.112;2023-04-07T00:08:18;11.10;;;8.53;;
6007;SDS011;3032;49.484;11.112;2023-04-07T00:10:44;11.13;;;8.30;;
6007;SDS011;3032;49.484;11.112;2023-04-07T00:13:10;13.63;;;8.90;;
6007;SDS011;3032;49.484;11.112;2023-04-07T00:15:36;13.93;;;9.03;;
6007;SDS011;3032;49.484;11.112;2023-04-07T00:18:02;9.03;;;7.83;;
6007;SDS011;3032;49.484;11.112;2023-04-07T00:20:27;12.07;;;8.63;;
6007;SDS011;3032;49.484;11.112;2023-04-07T00:22:53;11.40;;;8.23;;
6007;SDS011;3032;49.484;11.112;2023-04-07T00:25:19;10.53;;;7.90;;
6007;SDS011;3032;49.484;11.112;2023-04-07T00:27:44;9.87;;;7.27;;
6007;SDS011;3032;49.484;11.112;2023-04-07T00:30:11;10.50;;;7.30;;
6007;SDS011;3032;49.484;11.112;2023-04-07T00:32:39;12.32;;;7.88;;
6007;SDS011;3032;49.484;11.112;2023-04-07T00:35:05;13.73;;;8.30;;
6007;SDS011;3032;49.484;11.112;2023-04-07T00:37:31;11.13;;;7.50;;
6007;SDS011;3032;49.484;11.112;2023-04-07T00:39:57;9.35;;;7.65;;
6007;SDS011;3032;49.484;11.112;2023-04-07T00:42:23;12.95;;;8.07;;
6007;SDS011;3032;49.484;11.112;2023-04-07T00:44:48;12.43;;;7.93;;
6007;SDS011;3032;49.484;11.112;2023-04-07T00:47:14;16.83;;;8.20;;
6007;SDS011;3032;49.484;11.112;2023-04-07T00:49:40;11.90;;;8.80;;
6007;SDS011;3032;49.484;11.112;2023-04-07T00:52:06;12.83;;;8.47;;
6007;SDS011;3032;49.484;11.112;2023-04-07T00:54:33;10.20;;;8.20;;
6007;SDS011;3032;49.484;11.112;2023-04-07T00:56:59;12.07;;;8.70;;
6007;SDS011;3032;49.484;11.112;2023-04-07T00:59:25;10.48;;;8.27;;
6007;SDS011;3032;49.484;11.112;2023-04-07T01:07:22;12.20;;;8.85;;
6007;SDS011;3032;49.484;11.112;2023-04-07T01:09:53;10.02;;;8.07;;
6007;SDS011;3032;49.484;11.112;2023-04-07T01:12:33;14.70;;;8.60;;
6007;SDS011;3032;49.484;11.112;2023-04-07T01:15:21;9.75;;;7.60;;
6007;SDS011;3032;49.484;11.112;2023-04-07T01:17:48;12.55;;;8.40;;
6007;SDS011;3032;49.484;11.112;2023-04-07T01:20:21;10.52;;;7.90;;
6007;SDS011;3032;49.484;11.112;2023-04-07T01:22:54;12.80;;;7.78;;
6007;SDS011;3032;49.484;11.112;2023-04-07T01:30:30;10.65;;;8.10;;
6007;SDS011;3032;49.484;11.112;2023-04-07T01:32:57;11.50;;;8.57;;
6007;SDS011;3032;49.484;11.112;2023-04-07T01:35:25;10.95;;;8.40;;
6007;SDS011;3032;49.484;11.112;2023-04-07T01:37:54;10.95;;;8.60;;
6007;SDS011;3032;49.484;11.112;2023-04-07T01:40:21;14.23;;;8.98;;
6007;SDS011;3032;49.484;11.112;2023-04-07T01:42:48;11.75;;;9.60;;
6007;SDS011;3032;49.484;11.112;2023-04-07T01:45:15;10.88;;;8.65;;
6007;SDS011;3032;49.484;11.112;2023-04-07T01:47:41;13.50;;;9.00;;
6007;SDS011;3032;49.484;11.112;2023-04-07T01:50:08;15.43;;;9.50;;
6007;SDS011;3032;49.484;11.112;2023-04-07T01:52:35;11.82;;;8.45;;
6007;SDS011;3032;49.484;11.112;2023-04-07T01:55:02;9.90;;;8.60;;
6007;SDS011;3032;49.484;11.112;2023-04-07T01:57:29;13.15;;;9.13;;
6007;SDS011;3032;49.484;11.112;2023-04-07T01:59:54;12.63;;;8.37;;
6007;SDS011;3032;49.484;11.112;2023-04-07T02:02:20;10.70;;;8.37;;
6007;SDS011;3032;49.484;11.112;2023-04-07T02:04:56;13.43;;;8.80;;
6007;SDS011;3032;49.484;11.112;2023-04-07T02:10:17;10.73;;;8.60;;
6007;SDS011;3032;49.484;11.112;2023-04-07T02:12:46;10.43;;;8.05;;
6007;SDS011;3032;49.484;11.112;2023-04-07T02:15:13;10.90;;;8.25;;
6007;SDS011;3032;49.484;11.112;2023-04-07T02:17:41;9.80;;;7.68;;
6007;SDS011;3032;49.484;11.112;2023-04-07T02:20:09;8.77;;;7.28;;
6007;SDS011;3032;49.484;11.112;2023-04-07T02:22:37;9.85;;;7.45;;
6007;SDS011;3032;49.484;11.112;2023-04-07T02:25:25;12.10;;;7.80;;
6007;SDS011;3032;49.484;11.112;2023-04-07T02:27:56;10.18;;;7.55;;
6007;SDS011;3032;49.484;11.112;2023-04-07T02:30:23;11.23;;;7.90;;
6007;SDS011;3032;49.484;11.112;2023-04-07T02:32:49;9.40;;;7.40;;
6007;SDS011;3032;49.484;11.112;2023-04-07T02:35:15;9.03;;;7.53;;
6007;SDS011;3032;49.484;11.112;2023-04-07T02:37:42;10.27;;;7.20;;
6007;SDS011;3032;49.484;11.112;2023-04-07T02:40:08;9.52;;;7.70;;
6007;SDS011;3032;49.484;11.112;2023-04-07T02:42:34;8.93;;;7.93;;
6007;SDS011;3032;49.484;11.112;2023-04-07T02:45:03;9.93;;;7.20;;
6007;SDS011;3032;49.484;11.112;2023-04-07T02:47:30;11.18;;;7.45;;
6007;SDS011;3032;49.484;11.112;2023-04-07T02:49:56;10.57;;;7.20;;
6007;SDS011;3032;49.484;11.112;2023-04-07T02:52:21;7.77;;;6.77;;
6007;SDS011;3032;49.484;11.112;2023-04-07T02:54:47;8.30;;;6.93;;
6007;SDS011;3032;49.484;11.112;2023-04-07T02:57:12;10.30;;;7.80;;
6007;SDS011;3032;49.484;11.112;2023-04-07T02:59:38;7.87;;;6.53;;
6007;SDS011;3032;49.484;11.112;2023-04-07T03:02:04;9.13;;;7.03;;
6007;SDS011;3032;49.484;11.112;2023-04-07T03:04:30;11.50;;;7.50;;
6007;SDS011;3032;49.484;11.112;2023-04-07T03:06:55;10.03;;;7.20;;
6007;SDS011;3032;49.484;11.112;2023-04-07T03:09:21;13.23;;;7.37;;
6007;SDS011;3032;49.484;11.112;2023-04-07T03:11:47;7.80;;;7.00;;
6007;SDS011;3032;49.484;11.112;2023-04-07T03:14:12;9.30;;;7.20;;
6007;SDS011;3032;49.484;11.112;2023-04-07T03:16:38;10.70;;;7.50;;
6007;SDS011;3032;49.484;11.112;2023-04-07T03:19:03;10.57;;;7.70;;
6007;SDS011;3032;49.484;11.112;2023-04-07T03:21:29;8.63;;;7.70;;
6007;SDS011;3032;49.484;11.112;2023-04-07T03:23:55;8.18;;;7.20;;
6007;SDS011;3032;49.484;11.112;2023-04-07T03:26:21;10.10;;;7.63;;
6007;SDS011;3032;49.484;11.112;2023-04-07T03:28:47;11.07;;;8.63;;
6007;SDS011;3032;49.484;11.112;2023-04-07T03:31:12;9.50;;;8.23;;
6007;SDS011;3032;49.484;11.112;2023-04-07T03:33:38;8.77;;;7.10;;
6007;SDS011;3032;49.484;11.112;2023-04-07T03:36:03;9.47;;;7.50;;
6007;SDS011;3032;49.484;11.112;2023-04-07T03:38:30;9.63;;;7.60;;
6007;SDS011;3032;49.484;11.112;2023-04-07T03:40:55;8.60;;;7.50;;
6007;SDS011;3032;49.484;11.112;2023-04-07T03:43:21;9.73;;;7.33;;
6007;SDS011;3032;49.484;11.112;2023-04-07T03:45:46;8.20;;;7.43;;
6007;SDS011;3032;49.484;11.112;2023-04-07T03:48:12;11.13;;;7.70;;
6007;SDS011;3032;49.484;11.112;2023-04-07T03:50:38;9.97;;;7.87;;
6007;SDS011;3032;49.484;11.112;2023-04-07T03:53:04;8.50;;;7.60;;
6007;SDS011;3032;49.484;11.112;2023-04-07T03:55:30;8.93;;;7.50;;
6007;SDS011;3032;49.484;11.112;2023-04-07T03:57:56;10.27;;;8.07;;
6007;SDS011;3032;49.484;11.112;2023-04-07T04:00:21;14.63;;;7.97;;
6007;SDS011;3032;49.484;11.112;2023-04-07T04:02:47;8.53;;;7.53;;
6007;SDS011;3032;49.484;11.112;2023-04-07T04:05:13;11.50;;;7.70;;
6007;SDS011;3032;49.484;11.112;2023-04-07T04:07:38;10.80;;;7.90;;
6007;SDS011;3032;49.484;11.112;2023-04-07T04:10:04;8.27;;;7.17;;
6007;SDS011;3032;49.484;11.112;2023-04-07T04:12:30;13.07;;;8.32;;
6007;SDS011;3032;49.484;11.112;2023-04-07T04:14:56;9.93;;;8.07;;
6007;SDS011;3032;49.484;11.112;2023-04-07T04:17:21;10.97;;;7.87;;
6007;SDS011;3032;49.484;11.112;2023-04-07T04:19:47;9.20;;;8.00;;
6007;SDS011;3032;49.484;11.112;2023-04-07T04:22:12;9.67;;;7.20;;
6007;SDS011;3032;49.484;11.112;2023-04-07T04:24:38;9.40;;;7.57;;
6007;SDS011;3032;49.484;11.112;2023-04-07T04:27:05;11.00;;;7.78;;
6007;SDS011;3032;49.484;11.112;2023-04-07T04:29:31;9.87;;;7.97;;
6007;SDS011;3032;49.484;11.112;2023-04-07T04:31:57;9.47;;;7.07;;
6007;SDS011;3032;49.484;11.112;2023-04-07T04:34:22;8.33;;;7.07;;
6007;SDS011;3032;49.484;11.112;2023-04-07T04:36:48;8.63;;;6.87;;
6007;SDS011;3032;49.484;11.112;2023-04-07T04:39:13;14.07;;;8.43;;
6007;SDS011;3032;49.484;11.112;2023-04-07T04:41:39;10.13;;;6.93;;
6007;SDS011;3032;49.484;11.112;2023-04-07T04:44:05;8.90;;;6.70;;
6007;SDS011;3032;49.484;11.112;2023-04-07T04:46:30;9.47;;;7.30;;
6007;SDS011;3032;49.484;11.112;2023-04-07T04:48:56;8.17;;;7.03;;
6007;SDS011;3032;49.484;11.112;2023-04-07T04:51:22;10.23;;;6.60;;
6007;SDS011;3032;49.484;11.112;2023-04-07T04:53:48;8.07;;;6.55;;
6007;SDS011;3032;49.484;11.112;2023-04-07T04:56:13;10.10;;;7.40;;
6007;SDS011;3032;49.484;11.112;2023-04-07T04:58:39;8.03;;;7.23;;
6007;SDS011;3032;49.484;11.112;2023-04-07T05:01:10;8.55;;;7.55;;
6007;SDS011;3032;49.484;11.112;2023-04-07T05:03:38;8.95;;;7.28;;
6007;SDS011;3032;49.484;11.112;2023-04-07T05:06:04;9.10;;;7.23;;
6007;SDS011;3032;49.484;11.112;2023-04-07T05:08:30;10.05;;;7.32;;
6007;SDS011;3032;49.484;11.112;2023-04-07T05:10:56;9.00;;;7.40;;
6007;SDS011;3032;49.484;11.112;2023-04-07T05:13:22;8.53;;;7.63;;
6007;SDS011;3032;49.484;11.112;2023-04-07T05:15:48;6.97;;;6.28;;
6007;SDS011;3032;49.484;11.112;2023-04-07T05:18:13;9.77;;;7.27;;
6007;SDS011;3032;49.484;11.112;2023-04-07T05:20:39;8.33;;;7.50;;
6007;SDS011;3032;49.484;11.112;2023-04-07T05:23:05;8.30;;;7.17;;
6007;SDS011;3032;49.484;11.112;2023-04-07T05:25:31;8.47;;;6.90;;
6007;SDS011;3032;49.484;11.112;2023-04-07T05:27:59;9.20;;;7.22;;
6007;SDS011;3032;49.484;11.112;2023-04-07T05:30:25;11.83;;;7.60;;
6007;SDS011;3032;49.484;11.112;2023-04-07T05:32:51;8.70;;;6.90;;
6007;SDS011;3032;49.484;11.112;2023-04-07T05:35:17;10.43;;;6.50;;
6007;SDS011;3032;49.484;11.112;2023-04-07T05:37:43;10.37;;;7.53;;
6007;SDS011;3032;49.484;11.112;2023-04-07T05:40:09;11.93;;;8.17;;
6007;SDS011;3032;49.484;11.112;2023-04-07T05:42:35;8.32;;;7.40;;
6007;SDS011;3032;49.484;11.112;2023-04-07T05:45:01;10.70;;;8.07;;
6007;SDS011;3032;49.484;11.112;2023-04-07T05:47:27;11.02;;;8.30;;
6007;SDS011;3032;49.484;11.112;2023-04-07T05:49:52;9.00;;;8.00;;
6007;SDS011;3032;49.484;11.112;2023-04-07T05:52:18;9.70;;;8.30;;
6007;SDS011;3032;49.484;11.112;2023-04-07T05:54:43;11.20;;;8.77;;
6007;SDS011;3032;49.484;11.112;2023-04-07T05:57:09;10.07;;;8.37;;
6007;SDS011;3032;49.484;11.112;2023-04-07T05:59:35;10.33;;;7.63;;
6007;SDS011;3032;49.484;11.112;2023-04-07T06:02:01;8.70;;;7.80;;
6007;SDS011;3032;49.484;11.112;2023-04-07T06:04:27;11.48;;;8.15;;
6007;SDS011;3032;49.484;11.112;2023-04-07T06:06:53;10.00;;;8.30;;
6007;SDS011;3032;49.484;11.112;2023-04-07T06:09:22;8.88;;;7.45;;
6007;SDS011;3032;49.484;11.112;2023-04-07T06:11:47;9.45;;;8.20;;
6007;SDS011;3032;49.484;11.112;2023-04-07T06:14:13;8.50;;;7.60;;
6007;SDS011;3032;49.484;11.112;2023-04-07T06:16:39;10.00;;;8.20;;
6007;SDS011;3032;49.484;11.112;2023-04-07T06:19:04;10.57;;;9.03;;
6007;SDS011;3032;49.484;11.112;2023-04-07T06:21:31;9.13;;;8.10;;
6007;SDS011;3032;49.484;11.112;2023-04-07T06:23:57;13.48;;;9.55;;
6007;SDS011;3032;49.484;11.112;2023-04-07T06:26:23;11.30;;;8.90;;
6007;SDS011;3032;49.484;11.112;2023-04-07T06:28:49;12.23;;;8.43;;
6007;SDS011;3032;49.484;11.112;2023-04-07T06:31:14;10.53;;;9.20;;
6007;SDS011;3032;49.484;11.112;2023-04-07T06:33:40;11.05;;;9.52;;
6007;SDS011;3032;49.484;11.112;2023-04-07T06:36:06;10.40;;;9.03;;
6007;SDS011;3032;49.484;11.112;2023-04-07T06:38:31;14.30;;;9.50;;
6007;SDS011;3032;49.484;11.112;2023-04-07T06:40:57;10.73;;;9.63;;
6007;SDS011;3032;49.484;11.112;2023-04-07T06:43:22;13.20;;;9.13;;
6007;SDS011;3032;49.484;11.112;2023-04-07T06:45:48;13.00;;;9.93;;
6007;SDS011;3032;49.484;11.112;2023-04-07T06:48:14;12.70;;;10.27;;
6007;SDS011;3032;49.484;11.112;2023-04-07T06:50:41;11.07;;;9.85;;
6007;SDS011;3032;49.484;11.112;2023-04-07T06:53:10;12.32;;;10.50;;
6007;SDS011;3032;49.484;11.112;2023-04-07T06:55:35;13.50;;;10.20;;
6007;SDS011;3032;49.484;11.112;2023-04-07T06:58:01;12.40;;;10.50;;
6007;SDS011;3032;49.484;11.112;2023-04-07T07:00:27;10.90;;;9.80;;
6007;SDS011;3032;49.484;11.112;2023-04-07T07:02:54;13.15;;;10.23;;
6007;SDS011;3032;49.484;11.112;2023-04-07T07:05:21;10.85;;;9.65;;
6007;SDS011;3032;49.484;11.112;2023-04-07T07:07:47;12.18;;;10.98;;
6007;SDS011;3032;49.484;11.112;2023-04-07T07:10:13;11.18;;;9.98;;
6007;SDS011;3032;49.484;11.112;2023-04-07T07:12:39;11.40;;;10.23;;
6007;SDS011;3032;49.484;11.112;2023-04-07T07:15:05;13.30;;;10.00;;
6007;SDS011;3032;49.484;11.112;2023-04-07T07:17:31;11.60;;;10.40;;
6007;SDS011;3032;49.484;11.112;2023-04-07T07:19:58;13.15;;;11.15;;
6007;SDS011;3032;49.484;11.112;2023-04-07T07:22:24;11.13;;;9.93;;
6007;SDS011;3032;49.484;11.112;2023-04-07T07:24:50;13.73;;;10.53;;
6007;SDS011;3032;49.484;11.112;2023-04-07T07:27:15;12.33;;;10.73;;
6007;SDS011;3032;49.484;11.112;2023-04-07T07:29:41;11.73;;;10.17;;
6007;SDS011;3032;49.484;11.112;2023-04-07T07:32:06;10.30;;;9.30;;
6007;SDS011;3032;49.484;11.112;2023-04-07T07:34:32;11.53;;;9.17;;
6007;SDS011;3032;49.484;11.112;2023-04-07T07:36:57;10.17;;;8.93;;
6007;SDS011;3032;49.484;11.112;2023-04-07T07:39:24;12.38;;;9.85;;
6007;SDS011;3032;49.484;11.112;2023-04-07T07:41:50;11.30;;;10.13;;
6007;SDS011;3032;49.484;11.112;2023-04-07T07:44:16;11.80;;;10.10;;
6007;SDS011;3032;49.484;11.112;2023-04-07T07:46:41;14.63;;;9.97;;
6007;SDS011;3032;49.484;11.112;2023-04-07T07:49:07;10.03;;;9.03;;
6007;SDS011;3032;49.484;11.112;2023-04-07T07:51:33;11.30;;;10.10;;
6007;SDS011;3032;49.484;11.112;2023-04-07T07:53:59;10.45;;;9.43;;
6007;SDS011;3032;49.484;11.112;2023-04-07T07:56:25;11.27;;;10.03;;
6007;SDS011;3032;49.484;11.112;2023-04-07T07:58:51;10.32;;;9.23;;
6007;SDS011;3032;49.484;11.112;2023-04-07T08:01:16;13.23;;;10.20;;
6007;SDS011;3032;49.484;11.112;2023-04-07T08:03:42;11.30;;;9.13;;
6007;SDS011;3032;49.484;11.112;2023-04-07T08:06:07;9.87;;;8.73;;
6007;SDS011;3032;49.484;11.112;2023-04-07T08:08:33;11.67;;;10.47;;
6007;SDS011;3032;49.484;11.112;2023-04-07T08:10:59;10.60;;;9.60;;
6007;SDS011;3032;49.484;11.112;2023-04-07T08:13:25;13.07;;;9.90;;
6007;SDS011;3032;49.484;11.112;2023-04-07T08:15:51;12.60;;;10.10;;
6007;SDS011;3032;49.484;11.112;2023-04-07T08:18:16;10.37;;;9.30;;
6007;SDS011;3032;49.484;11.112;2023-04-07T08:20:42;10.13;;;9.10;;
6007;SDS011;3032;49.484;11.112;2023-04-07T08:23:08;11.70;;;9.60;;
6007;SDS011;3032;49.484;11.112;2023-04-07T08:25:33;10.93;;;9.50;;
6007;SDS011;3032;49.484;11.112;2023-04-07T08:27:59;9.93;;;8.57;;
6007;SDS011;3032;49.484;11.112;2023-04-07T08:30:25;9.87;;;8.87;;
6007;SDS011;3032;49.484;11.112;2023-04-07T08:32:50;11.53;;;9.97;;
6007;SDS011;3032;49.484;11.112;2023-04-07T08:35:16;10.53;;;9.40;;
6007;SDS011;3032;49.484;11.112;2023-04-07T08:37:41;11.50;;;9.70;;
6007;SDS011;3032;49.484;11.112;2023-04-07T08:40:08;13.48;;;9.77;;
6007;SDS011;3032;49.484;11.112;2023-04-07T08:42:34;10.85;;;9.57;;
6007;SDS011;3032;49.484;11.112;2023-04-07T08:45:05;13.07;;;9.88;;
6007;SDS011;3032;49.484;11.112;2023-04-07T08:47:33;9.95;;;9.05;;
6007;SDS011;3032;49.484;11.112;2023-04-07T08:50:01;11.45;;;9.60;;
6007;SDS011;3032;49.484;11.112;2023-04-07T08:52:32;12.13;;;9.18;;
6007;SDS011;3032;49.484;11.112;2023-04-07T08:54:59;11.35;;;10.20;;
6007;SDS011;3032;49.484;11.112;2023-04-07T08:57:29;10.50;;;9.50;;
6007;SDS011;3032;49.484;11.112;2023-04-07T08:59:56;10.45;;;9.35;;
6007;SDS011;3032;49.484;11.112;2023-04-07T09:02:28;12.00;;;9.82;;
6007;SDS011;3032;49.484;11.112;2023-04-07T09:04:55;10.43;;;9.38;;
6007;SDS011;3032;49.484;11.112;2023-04-07T09:07:21;10.52;;;8.55;;
6007;SDS011;3032;49.484;11.112;2023-04-07T09:09:46;14.20;;;10.20;;
6007;SDS011;3032;49.484;11.112;2023-04-07T09:12:12;13.03;;;9.90;;
6007;SDS011;3032;49.484;11.112;2023-04-07T09:14:37;10.47;;;9.00;;
6007;SDS011;3032;49.484;11.112;2023-04-07T09:17:03;12.50;;;10.70;;
6007;SDS011;3032;49.484;11.112;2023-04-07T09:19:28;9.77;;;8.77;;
6007;SDS011;3032;49.484;11.112;2023-04-07T09:21:55;14.60;;;9.82;;
6007;SDS011;3032;49.484;11.112;2023-04-07T09:26:47;10.95;;;9.85;;
6007;SDS011;3032;49.484;11.112;2023-04-07T09:29:14;9.17;;;8.13;;
6007;SDS011;3032;49.484;11.112;2023-04-07T09:31:44;9.73;;;8.70;;
6007;SDS011;3032;49.484;11.112;2023-04-07T09:34:31;10.88;;;9.77;;
6007;SDS011;3032;49.484;11.112;2023-04-07T09:36:58;10.80;;;9.70;;
6007;SDS011;3032;49.484;11.112;2023-04-07T09:39:24;10.05;;;9.05;;
6007;SDS011;3032;49.484;11.112;2023-04-07T09:41:50;10.82;;;9.57;;
6007;SDS011;3032;49.484;11.112;2023-04-07T09:44:17;11.50;;;8.95;;
6007;SDS011;3032;49.484;11.112;2023-04-07T09:46:50;10.10;;;9.10;;
6007;SDS011;3032;49.484;11.112;2023-04-07T09:49:20;9.98;;;8.93;;
6007;SDS011;3032;49.484;11.112;2023-04-07T09:51:53;11.15;;;9.70;;
6007;SDS011;3032;49.484;11.112;2023-04-07T09:54:33;11.50;;;8.80;;
6007;SDS011;3032;49.484;11.112;2023-04-07T09:57:04;10.85;;;9.40;;
6007;SDS011;3032;49.484;11.112;2023-04-07T09:59:35;10.40;;;9.30;;
6007;SDS011;3032;49.484;11.112;2023-04-07T10:02:02;11.52;;;9.80;;
6007;SDS011;3032;49.484;11.112;2023-04-07T10:04:28;11.32;;;10.07;;
6007;SDS011;3032;49.484;11.112;2023-04-07T10:06:55;10.80;;;9.80;;
6007;SDS011;3032;49.484;11.112;2023-04-07T10:09:23;10.30;;;9.30;;
6007;SDS011;3032;49.484;11.112;2023-04-07T10:11:52;10.00;;;9.00;;
6007;SDS011;3032;49.484;11.112;2023-04-07T10:14:19;10.02;;;8.90;;
6007;SDS011;3032;49.484;11.112;2023-04-07T10:16:47;11.23;;;10.05;;
6007;SDS011;3032;49.484;11.112;2023-04-07T10:19:13;10.48;;;9.48;;
6007;SDS011;3032;49.484;11.112;2023-04-07T10:21:39;9.80;;;8.97;;
6007;SDS011;3032;49.484;11.112;2023-04-07T10:24:14;10.15;;;9.25;;
6007;SDS011;3032;49.484;11.112;2023-04-07T10:26:50;10.27;;;9.32;;
6007;SDS011;3032;49.484;11.112;2023-04-07T10:29:20;10.60;;;9.60;;
6007;SDS011;3032;49.484;11.112;2023-04-07T10:31:47;10.10;;;9.23;;
6007;SDS011;3032;49.484;11.112;2023-04-07T10:34:13;10.70;;;9.60;;
6007;SDS011;3032;49.484;11.112;2023-04-07T10:39:38;10.13;;;9.25;;
6007;SDS011;3032;49.484;11.112;2023-04-07T10:42:04;9.98;;;9.10;;
6007;SDS011;3032;49.484;11.112;2023-04-07T10:44:51;10.03;;;9.13;;
6007;SDS011;3032;49.484;11.112;2023-04-07T10:47:17;9.77;;;8.95;;
6007;SDS011;3032;49.484;11.112;2023-04-07T10:50:13;10.20;;;9.30;;
6007;SDS011;3032;49.484;11.112;2023-04-07T10:52:45;11.07;;;10.15;;
6007;SDS011;3032;49.484;11.112;2023-04-07T10:58:21;10.18;;;9.27;;
6007;SDS011;3032;49.484;11.112;2023-04-07T11:03:28;11.63;;;10.57;;
6007;SDS011;3032;49.484;11.112;2023-04-07T11:06:10;10.40;;;9.50;;
6007;SDS011;3032;49.484;11.112;2023-04-07T11:08:41;12.00;;;10.80;;
6007;SDS011;3032;49.484;11.112;2023-04-07T11:11:09;10.38;;;9.48;;
6007;SDS011;3032;49.484;11.112;2023-04-07T11:13:39;11.52;;;9.95;;
6007;SDS011;3032;49.484;11.112;2023-04-07T11:16:06;11.15;;;10.02;;
6007;SDS011;3032;49.484;11.112;2023-04-07T11:18:32;10.65;;;9.63;;
6007;SDS011;3032;49.484;11.112;2023-04-07T11:20:58;11.05;;;10.15;;
6007;SDS011;3032;49.484;11.112;2023-04-07T11:23:24;12.73;;;10.93;;
6007;SDS011;3032;49.484;11.112;2023-04-07T11:25:52;10.90;;;9.80;;
6007;SDS011;3032;49.484;11.112;2023-04-07T11:28:25;11.18;;;10.18;;
6007;SDS011;3032;49.484;11.112;2023-04-07T11:30:51;14.30;;;10.77;;
6007;SDS011;3032;49.484;11.112;2023-04-07T11:33:21;10.85;;;9.85;;
6007;SDS011;3032;49.484;11.112;2023-04-07T11:35:50;10.27;;;9.25;;
6007;SDS011;3032;49.484;11.112;2023-04-07T11:38:21;14.02;;;10.60;;
6007;SDS011;3032;49.484;11.112;2023-04-07T11:40:48;11.65;;;10.52;;
6007;SDS011;3032;49.484;11.112;2023-04-07T11:43:17;10.90;;;9.90;;
6007;SDS011;3032;49.484;11.112;2023-04-07T11:45:45;10.60;;;9.80;;
6007;SDS011;3032;49.484;11.112;2023-04-07T11:50:53;11.98;;;10.65;;
6007;SDS011;3032;49.484;11.112;2023-04-07T11:53:29;11.60;;;10.50;;
6007;SDS011;3032;49.484;11.112;2023-04-07T11:56:07;10.50;;;9.60;;
6007;SDS011;3032;49.484;11.112;2023-04-07T11:58:37;11.52;;;10.27;;
6007;SDS011;3032;49.484;11.112;2023-04-07T12:01:04;11.18;;;9.98;;
6007;SDS011;3032;49.484;11.112;2023-04-07T12:03:33;11.55;;;10.45;;
6007;SDS011;3032;49.484;11.112;2023-04-07T12:06:00;11.70;;;10.50;;
6007;SDS011;3032;49.484;11.112;2023-04-07T12:08:36;11.77;;;10.52;;
6007;SDS011;3032;49.484;11.112;2023-04-07T12:11:05;11.10;;;10.00;;
6007;SDS011;3032;49.484;11.112;2023-04-07T12:13:32;11.88;;;10.50;;
6007;SDS011;3032;49.484;11.112;2023-04-07T12:15:58;12.27;;;11.02;;
6007;SDS011;3032;49.484;11.112;2023-04-07T12:18:24;12.48;;;11.18;;
6007;SDS011;3032;49.484;11.112;2023-04-07T12:20:50;12.20;;;9.85;;
6007;SDS011;3032;49.484;11.112;2023-04-07T12:23:16;11.47;;;10.37;;
6007;SDS011;3032;49.484;11.112;2023-04-07T12:25:42;11.07;;;9.90;;
6007;SDS011;3032;49.484;11.112;2023-04-07T12:28:07;13.17;;;11.03;;
6007;SDS011;3032;49.484;11.112;2023-04-07T12:30:33;12.40;;;10.87;;
6007;SDS011;3032;49.484;11.112;2023-04-07T12:32:58;12.77;;;11.57;;
6007;SDS011;3032;49.484;11.112;2023-04-07T12:35:24;12.97;;;11.77;;
6007;SDS011;3032;49.484;11.112;2023-04-07T12:37:50;12.90;;;11.50;;
6007;SDS011;3032;49.484;11.112;2023-04-07T12:40:17;12.63;;;11.30;;
6007;SDS011;3032;49.484;11.112;2023-04-07T12:42:42;13.07;;;11.23;;
6007;SDS011;3032;49.484;11.112;2023-04-07T12:45:08;11.90;;;10.63;;
6007;SDS011;3032;49.484;11.112;2023-04-07T12:47:34;13.10;;;11.65;;
6007;SDS011;3032;49.484;11.112;2023-04-07T12:49:59;13.30;;;10.90;;
6007;SDS011;3032;49.484;11.112;2023-04-07T12:52:25;12.73;;;11.52;;
6007;SDS011;3032;49.484;11.112;2023-04-07T12:54:51;13.50;;;12.10;;
6007;SDS011;3032;49.484;11.112;2023-04-07T12:57:17;14.20;;;12.80;;
6007;SDS011;3032;49.484;11.112;2023-04-07T12:59:43;12.80;;;11.37;;
6007;SDS011;3032;49.484;11.112;2023-04-07T13:02:09;12.13;;;11.03;;
6007;SDS011;3032;49.484;11.112;2023-04-07T13:04:37;13.75;;;12.35;;
6007;SDS011;3032;49.484;11.112;2023-04-07T13:07:04;13.65;;;12.23;;
6007;SDS011;3032;49.484;11.112;2023-04-07T13:09:30;13.33;;;11.90;;
6007;SDS011;3032;49.484;11.112;2023-04-07T13:11:55;13.67;;;12.20;;
6007;SDS011;3032;49.484;11.112;2023-04-07T13:14:22;13.63;;;11.82;;
6007;SDS011;3032;49.484;11.112;2023-04-07T13:16:48;15.00;;;13.57;;
6007;SDS011;3032;49.484;11.112;2023-04-07T13:19:13;15.00;;;12.90;;
6007;SDS011;3032;49.484;11.112;2023-04-07T13:21:39;18.27;;;13.97;;
6007;SDS011;3032;49.484;11.112;2023-04-07T13:24:04;13.53;;;12.23;;
6007;SDS011;3032;49.484;11.112;2023-04-07T13:26:30;15.50;;;13.90;;
6007;SDS011;3032;49.484;11.112;2023-04-07T13:28:55;23.20;;;14.07;;
6007;SDS011;3032;49.484;11.112;2023-04-07T13:31:21;13.40;;;12.10;;
6007;SDS011;3032;49.484;11.112;2023-04-07T13:33:47;13.82;;;12.52;;
6007;SDS011;3032;49.484;11.112;2023-04-07T13:36:13;13.90;;;12.33;;
6007;SDS011;3032;49.484;11.112;2023-04-07T13:38:38;16.20;;;14.17;;
6007;SDS011;3032;49.484;11.112;2023-04-07T13:41:06;16.88;;;13.50;;
6007;SDS011;3032;49.484;11.112;2023-04-07T13:43:31;15.27;;;13.77;;
6007;SDS011;3032;49.484;11.112;2023-04-07T13:45:57;15.30;;;13.70;;
6007;SDS011;3032;49.484;11.112;2023-04-07T13:48:23;18.70;;;14.20;;
6007;SDS011;3032;49.484;11.112;2023-04-07T13:50:48;14.27;;;12.87;;
6007;SDS011;3032;49.484;11.112;2023-04-07T13:53:14;14.77;;;13.30;;
6007;SDS011;3032;49.484;11.112;2023-04-07T13:55:39;14.00;;;12.43;;
6007;SDS011;3032;49.484;11.112;2023-04-07T13:58:05;15.60;;;13.00;;
6007;SDS011;3032;49.484;11.112;2023-04-07T14:00:31;14.67;;;13.20;;
6007;SDS011;3032;49.484;11.112;2023-04-07T14:02:56;14.40;;;12.70;;
6007;SDS011;3032;49.484;11.112;2023-04-07T14:05:22;13.23;;;11.93;;
6007;SDS011;3032;49.484;11.112;2023-04-07T14:07:48;13.23;;;11.95;;
6007;SDS011;3032;49.484;11.112;2023-04-07T14:10:14;13.27;;;11.95;;
6007;SDS011;3032;49.484;11.112;2023-04-07T14:12:40;13.10;;;11.87;;
6007;SDS011;3032;49.484;11.112;2023-04-07T14:15:06;13.47;;;12.10;;
6007;SDS011;3032;49.484;11.112;2023-04-07T14:17:32;12.18;;;11.07;;
6007;SDS011;3032;49.484;11.112;2023-04-07T14:19:58;15.07;;;12.70;;
6007;SDS011;3032;49.484;11.112;2023-04-07T14:22:23;13.70;;;12.40;;
6007;SDS011;3032;49.484;11.112;2023-04-07T14:24:49;15.67;;;12.90;;
6007;SDS011;3032;49.484;11.112;2023-04-07T14:27:14;14.83;;;13.30;;
6007;SDS011;3032;49.484;11.112;2023-04-07T14:29:44;14.20;;;12.80;;
6007;SDS011;3032;49.484;11.112;2023-04-07T14:32:11;13.18;;;11.88;;
6007;SDS011;3032;49.484;11.112;2023-04-07T14:34:36;12.93;;;11.73;;
6007;SDS011;3032;49.484;11.112;2023-04-07T14:37:02;13.07;;;11.90;;
6007;SDS011;3032;49.484;11.112;2023-04-07T14:39:28;12.73;;;11.43;;
6007;SDS011;3032;49.484;11.112;2023-04-07T14:41:54;13.03;;;11.83;;
6007;SDS011;3032;49.484;11.112;2023-04-07T14:44:19;12.80;;;11.60;;
6007;SDS011;3032;49.484;11.112;2023-04-07T14:46:45;12.70;;;11.50;;
6007;SDS011;3032;49.484;11.112;2023-04-07T14:49:12;15.67;;;13.10;;
6007;SDS011;3032;49.484;11.112;2023-04-07T14:51:38;15.25;;;13.85;;
6007;SDS011;3032;49.484;11.112;2023-04-07T14:54:04;14.47;;;13.10;;
6007;SDS011;3032;49.484;11.112;2023-04-07T14:56:30;13.40;;;12.10;;
6007;SDS011;3032;49.484;11.112;2023-04-07T14:58:56;14.03;;;12.27;;
6007;SDS011;3032;49.484;11.112;2023-04-07T15:01:21;14.50;;;13.10;;
6007;SDS011;3032;49.484;11.112;2023-04-07T15:03:47;13.87;;;12.20;;
6007;SDS011;3032;49.484;11.112;2023-04-07T15:06:12;14.00;;;12.00;;
6007;SDS011;3032;49.484;11.112;2023-04-07T15:08:39;14.63;;;13.33;;
6007;SDS011;3032;49.484;11.112;2023-04-07T15:11:08;13.68;;;12.27;;